createdAt,value
2018-03-21T00:01:55.005Z,3.00
2018-03-21T00:04:23.263Z,3.23
2018-03-21T00:06:51.540Z,3.33
2018-03-21T00:09:19.837Z,3.83
2018-03-21T00:11:48.070Z,3.60
2018-03-21T00:14:16.335Z,3.50
2018-03-21T00:16:44.591Z,4.13
2018-03-21T00:19:13.166Z,3.30
2018-03-21T00:21:41.431Z,4.20
2018-03-21T00:24:09.699Z,3.47
2018-03-21T00:26:37.963Z,4.10
2018-03-21T00:29:06.214Z,4.13
2018-03-21T00:31:34.478Z,3.60
2018-03-21T00:34:02.740Z,3.60
2018-03-21T00:36:31.005Z,4.67
2018-03-21T00:38:59.270Z,4.10
2018-03-21T00:41:27.535Z,4.30
2018-03-21T00:43:55.799Z,3.90
2018-03-21T00:46:24.060Z,3.73
2018-03-21T00:48:52.323Z,4.40
2018-03-21T00:51:20.587Z,4.50
2018-03-21T00:53:48.859Z,4.77
2018-03-21T00:56:17.134Z,4.10
2018-03-21T00:58:45.391Z,4.30
2018-03-21T01:04:11.145Z,4.10
2018-03-21T01:06:39.417Z,4.40
2018-03-21T01:09:07.689Z,3.80
2018-03-21T01:11:35.973Z,4.23
2018-03-21T01:14:04.245Z,4.63
2018-03-21T01:16:32.521Z,3.93
2018-03-21T01:19:00.803Z,4.00
2018-03-21T01:21:29.086Z,5.03
2018-03-21T01:23:57.361Z,4.67
2018-03-21T01:26:25.650Z,3.70
2018-03-21T01:28:53.931Z,3.83
2018-03-21T01:31:22.208Z,5.33
2018-03-21T01:33:50.484Z,3.87
2018-03-21T01:36:18.767Z,4.80
2018-03-21T01:38:47.043Z,4.20
2018-03-21T01:41:15.314Z,4.67
2018-03-21T01:43:43.596Z,3.70
2018-03-21T01:46:11.867Z,3.87
2018-03-21T01:48:40.148Z,5.10
2018-03-21T01:51:08.429Z,4.20
2018-03-21T01:53:36.697Z,4.70
2018-03-21T01:56:04.989Z,4.33
2018-03-21T01:58:33.259Z,3.20
2018-03-21T02:01:01.537Z,3.87
2018-03-21T02:03:29.816Z,4.10
2018-03-21T02:05:58.093Z,3.50
2018-03-21T02:08:26.369Z,3.87
2018-03-21T02:10:54.654Z,3.60
2018-03-21T02:13:22.933Z,2.93
2018-03-21T02:15:51.194Z,4.00
2018-03-21T02:18:19.475Z,3.20
2018-03-21T02:20:47.741Z,3.00
2018-03-21T02:23:16.020Z,3.87
2018-03-21T02:25:44.294Z,3.90
2018-03-21T02:28:12.574Z,2.87
2018-03-21T02:30:40.866Z,3.57
2018-03-21T02:33:09.125Z,2.97
2018-03-21T02:35:37.405Z,4.07
2018-03-21T02:38:05.670Z,3.07
2018-03-21T02:40:33.949Z,3.87
2018-03-21T02:43:21.964Z,3.37
2018-03-21T02:45:50.284Z,2.33
2018-03-21T02:48:18.514Z,3.33
2018-03-21T02:50:46.793Z,2.77
2018-03-21T02:53:15.063Z,4.10
2018-03-21T02:55:43.342Z,3.20
2018-03-21T02:58:11.609Z,3.07
2018-03-21T03:00:41.106Z,3.47
2018-03-21T03:03:09.382Z,4.80
2018-03-21T03:05:37.705Z,3.10
2018-03-21T03:08:05.952Z,4.37
2018-03-21T03:10:34.215Z,3.70
2018-03-21T03:13:02.488Z,3.93
2018-03-21T03:15:30.753Z,3.60
2018-03-21T03:17:59.040Z,4.23
2018-03-21T03:20:27.305Z,3.57
2018-03-21T03:22:55.593Z,3.60
2018-03-21T03:25:23.868Z,3.30
2018-03-21T03:27:52.158Z,3.97
2018-03-21T03:30:20.424Z,3.17
2018-03-21T03:32:48.698Z,2.77
2018-03-21T03:35:16.982Z,3.00
2018-03-21T03:37:45.253Z,3.10
2018-03-21T03:40:13.530Z,2.80
2018-03-21T03:42:41.798Z,3.57
2018-03-21T03:45:10.082Z,3.43
2018-03-21T03:47:38.354Z,3.53
2018-03-21T03:50:06.649Z,3.63
2018-03-21T03:52:34.926Z,2.97
2018-03-21T03:55:03.201Z,4.53
2018-03-21T03:57:31.485Z,4.10
2018-03-21T03:59:59.765Z,4.13
2018-03-21T04:02:28.049Z,4.10
2018-03-21T04:04:56.319Z,3.50
2018-03-21T04:07:24.598Z,3.20
2018-03-21T04:09:52.869Z,4.10
2018-03-21T04:12:21.172Z,4.30
2018-03-21T04:14:49.470Z,4.40
2018-03-21T04:17:17.746Z,4.50
2018-03-21T04:19:46.022Z,4.43
2018-03-21T04:22:14.292Z,3.27
2018-03-21T04:24:42.577Z,4.00
2018-03-21T04:27:10.848Z,3.53
2018-03-21T04:29:39.130Z,3.13
2018-03-21T04:32:07.397Z,3.63
2018-03-21T04:34:35.696Z,3.63
2018-03-21T04:37:03.973Z,4.20
2018-03-21T04:39:32.248Z,3.40
2018-03-21T04:42:00.524Z,3.57
2018-03-21T04:44:39.007Z,3.00
2018-03-21T04:47:08.946Z,3.93
2018-03-21T04:49:37.213Z,3.80
2018-03-21T04:52:05.492Z,4.50
2018-03-21T04:54:33.769Z,3.17
2018-03-21T04:57:02.303Z,3.70
2018-03-21T04:59:30.596Z,5.10
2018-03-21T05:01:58.861Z,3.93
2018-03-21T05:04:27.143Z,3.50
2018-03-21T05:06:55.405Z,3.70
2018-03-21T05:09:23.681Z,4.07
2018-03-21T05:11:51.957Z,2.90
2018-03-21T05:14:20.237Z,3.77
2018-03-21T05:16:48.513Z,4.70
2018-03-21T05:19:16.802Z,3.00
2018-03-21T05:21:45.078Z,3.00
2018-03-21T05:24:13.354Z,5.17
2018-03-21T05:26:41.642Z,2.87
2018-03-21T05:29:09.913Z,4.33
2018-03-21T05:31:38.199Z,3.83
2018-03-21T05:34:06.482Z,4.20
2018-03-21T05:36:34.769Z,4.70
2018-03-21T05:39:03.033Z,4.10
2018-03-21T05:41:33.301Z,3.70
2018-03-21T05:44:01.561Z,3.93
2018-03-21T05:46:29.836Z,4.70
2018-03-21T05:48:58.557Z,4.07
2018-03-21T05:51:26.831Z,3.93
2018-03-21T05:53:55.969Z,4.07
2018-03-21T05:56:24.245Z,5.20
2018-03-21T05:58:52.530Z,5.77
2018-03-21T06:01:20.805Z,4.37
2018-03-21T06:03:49.097Z,5.33
2018-03-21T06:06:17.365Z,4.97
2018-03-21T06:08:45.694Z,5.23
2018-03-21T06:11:13.917Z,3.70
2018-03-21T06:13:42.189Z,4.80
2018-03-21T06:16:10.487Z,5.17
2018-03-21T06:18:38.760Z,5.60
2018-03-21T06:21:07.050Z,4.60
2018-03-21T06:23:35.322Z,5.03
2018-03-21T06:26:03.617Z,5.77
2018-03-21T06:28:31.894Z,5.73
2018-03-21T06:31:00.181Z,5.13
2018-03-21T06:33:28.468Z,6.17
2018-03-21T06:35:56.761Z,5.83
2018-03-21T06:38:25.033Z,5.83
2018-03-21T06:40:53.313Z,5.90
2018-03-21T06:43:21.602Z,5.43
2018-03-21T06:45:49.931Z,5.47
2018-03-21T06:48:20.156Z,5.90
2018-03-21T06:50:48.428Z,6.47
2018-03-21T06:53:16.705Z,3.97
2018-03-21T06:55:45.944Z,5.60
2018-03-21T06:58:14.342Z,5.10
2018-03-21T07:00:42.641Z,5.23
2018-03-21T07:03:10.913Z,6.03
2018-03-21T07:05:39.202Z,5.20
2018-03-21T07:08:20.893Z,4.63
2018-03-21T07:10:49.199Z,5.00
2018-03-21T07:13:36.441Z,4.93
2018-03-21T07:16:22.456Z,4.90
2018-03-21T07:18:50.747Z,5.60
2018-03-21T07:21:19.028Z,4.87
2018-03-21T07:23:51.904Z,6.07
2018-03-21T07:26:20.207Z,5.87
2018-03-21T07:28:48.492Z,5.33
2018-03-21T07:31:16.770Z,5.40
2018-03-21T07:33:45.058Z,6.30
2018-03-21T07:36:13.342Z,5.90
2018-03-21T07:38:41.634Z,5.57
2018-03-21T07:41:09.932Z,6.00
2018-03-21T07:43:38.225Z,6.20
2018-03-21T07:46:07.517Z,5.37
2018-03-21T07:48:36.745Z,6.37
2018-03-21T07:51:06.970Z,6.43
2018-03-21T07:53:35.257Z,5.93
2018-03-21T07:56:03.545Z,6.30
2018-03-21T07:58:31.825Z,6.00
2018-03-21T08:01:01.037Z,6.00
2018-03-21T08:03:29.321Z,6.13
2018-03-21T08:05:57.620Z,6.27
2018-03-21T08:08:25.925Z,6.30
2018-03-21T08:10:54.329Z,6.00
2018-03-21T08:13:22.635Z,6.50
2018-03-21T08:15:50.986Z,6.10
2018-03-21T08:18:19.288Z,6.30
2018-03-21T08:20:47.587Z,6.40
2018-03-21T08:23:15.878Z,6.70
2018-03-21T08:25:44.180Z,7.50
2018-03-21T08:28:12.466Z,6.53
2018-03-21T08:30:40.761Z,6.67
2018-03-21T08:33:09.057Z,7.70
2018-03-21T08:35:37.350Z,6.70
2018-03-21T08:38:05.691Z,7.43
2018-03-21T08:40:33.933Z,6.97
2018-03-21T08:43:02.225Z,7.10
2018-03-21T08:45:30.517Z,7.10
2018-03-21T08:47:58.814Z,7.50
2018-03-21T08:50:27.121Z,6.53
2018-03-21T08:52:55.411Z,8.00
2018-03-21T08:55:23.713Z,7.70
2018-03-21T08:57:52.001Z,8.00
2018-03-21T09:00:21.294Z,7.57
2018-03-21T09:02:49.585Z,8.30
2018-03-21T09:05:17.869Z,8.40
2018-03-21T09:07:46.201Z,7.80
2018-03-21T09:10:18.446Z,8.40
2018-03-21T09:12:46.743Z,7.73
2018-03-21T09:15:15.025Z,8.43
2018-03-21T09:17:43.409Z,8.77
2018-03-21T09:20:11.693Z,8.37
2018-03-21T09:22:39.990Z,8.47
2018-03-21T09:25:08.268Z,8.90
2018-03-21T09:27:36.589Z,9.07
2018-03-21T09:30:04.918Z,10.07
2018-03-21T09:32:33.472Z,9.23
2018-03-21T09:35:03.695Z,9.30
2018-03-21T09:37:32.028Z,10.20
2018-03-21T09:40:01.202Z,10.73
2018-03-21T09:42:29.490Z,11.23
2018-03-21T09:44:58.702Z,9.03
2018-03-21T09:47:26.991Z,10.63
2018-03-21T09:49:55.287Z,13.30
2018-03-21T09:52:24.483Z,14.13
2018-03-21T09:54:52.778Z,14.90
2018-03-21T09:57:22.001Z,13.60
2018-03-21T10:00:11.604Z,14.17
2018-03-21T10:02:39.885Z,15.07
2018-03-21T10:05:08.175Z,17.93
2018-03-21T10:07:36.464Z,16.30
2018-03-21T10:10:04.757Z,15.43
2018-03-21T10:12:33.036Z,15.43
2018-03-21T10:15:03.257Z,18.97
2018-03-21T10:17:31.533Z,21.50
2018-03-21T10:19:59.829Z,24.27
2018-03-21T10:22:28.114Z,22.03
2018-03-21T10:24:56.399Z,22.77
2018-03-21T10:27:25.001Z,23.67
2018-03-21T10:29:53.294Z,24.00
2018-03-21T10:32:21.621Z,25.30
2018-03-21T10:34:49.901Z,25.80
2018-03-21T10:37:18.294Z,22.77
2018-03-21T10:39:46.582Z,25.67
2018-03-21T10:42:14.878Z,27.13
2018-03-21T10:44:53.480Z,25.73
2018-03-21T10:47:21.732Z,27.37
2018-03-21T10:49:50.352Z,26.93
2018-03-21T10:52:22.152Z,27.30
2018-03-21T10:54:50.436Z,26.60
2018-03-21T10:57:18.788Z,28.43
2018-03-21T10:59:48.018Z,27.40
2018-03-21T11:02:16.306Z,29.43
2018-03-21T11:04:44.604Z,30.53
2018-03-21T11:07:13.122Z,32.23
2018-03-21T11:09:41.401Z,29.73
2018-03-21T11:12:09.721Z,29.03
2018-03-21T11:14:37.997Z,28.23
2018-03-21T11:17:06.282Z,29.03
2018-03-21T11:19:34.588Z,26.50
2018-03-21T11:22:02.875Z,26.10
2018-03-21T11:24:31.169Z,22.57
2018-03-21T11:26:59.457Z,25.57
2018-03-21T11:29:27.745Z,26.20
2018-03-21T11:31:56.025Z,24.90
2018-03-21T11:34:24.320Z,28.37
2018-03-21T11:36:53.577Z,35.17
2018-03-21T11:39:21.864Z,36.33
2018-03-21T11:41:50.150Z,39.63
2018-03-21T11:44:18.441Z,31.37
2018-03-21T11:46:46.746Z,45.50
2018-03-21T11:49:15.050Z,45.80
2018-03-21T11:51:43.337Z,44.73
2018-03-21T11:54:11.645Z,41.83
2018-03-21T11:56:39.929Z,42.30
2018-03-21T11:59:10.234Z,39.00
2018-03-21T12:01:38.521Z,39.07
2018-03-21T12:04:06.801Z,37.33
2018-03-21T12:06:35.097Z,35.40
2018-03-21T12:09:03.389Z,35.87
2018-03-21T12:11:31.703Z,32.53
2018-03-21T12:13:59.969Z,29.33
2018-03-21T12:16:28.272Z,27.77
2018-03-21T12:18:56.563Z,27.47
2018-03-21T12:21:24.848Z,27.37
2018-03-21T12:23:53.142Z,29.67
2018-03-21T12:26:21.438Z,32.00
2018-03-21T12:28:49.724Z,28.30
2018-03-21T12:31:18.013Z,26.60
2018-03-21T12:33:46.301Z,26.83
2018-03-21T12:36:14.605Z,25.80
2018-03-21T12:38:42.889Z,24.47
2018-03-21T12:41:11.194Z,26.37
2018-03-21T12:43:39.482Z,21.60
2018-03-21T12:46:07.773Z,29.10
2018-03-21T12:48:36.060Z,28.87
2018-03-21T12:51:04.343Z,22.53
2018-03-21T12:53:32.627Z,22.07
2018-03-21T12:56:00.939Z,22.73
2018-03-21T12:58:29.269Z,25.17
2018-03-21T13:00:57.556Z,22.50
2018-03-21T13:03:33.798Z,25.40
2018-03-21T13:06:02.081Z,22.93
2018-03-21T13:08:30.378Z,18.07
2018-03-21T13:10:58.652Z,23.83
2018-03-21T13:13:26.949Z,22.50
2018-03-21T13:15:55.246Z,22.43
2018-03-21T13:18:33.477Z,23.17
2018-03-21T13:21:01.752Z,23.13
2018-03-21T13:23:30.072Z,22.60
2018-03-21T13:25:58.368Z,21.23
2018-03-21T13:28:26.653Z,19.00
2018-03-21T13:30:54.952Z,19.60
2018-03-21T13:33:23.239Z,15.50
2018-03-21T13:35:51.546Z,15.83
2018-03-21T13:38:19.829Z,15.03
2018-03-21T13:40:48.129Z,15.60
2018-03-21T13:43:16.414Z,11.67
2018-03-21T13:45:45.737Z,14.23
2018-03-21T13:48:14.009Z,14.43
2018-03-21T13:50:42.458Z,12.67
2018-03-21T13:53:10.754Z,12.70
2018-03-21T13:55:39.048Z,12.83
2018-03-21T13:58:07.334Z,11.50
2018-03-21T14:00:35.620Z,11.53
2018-03-21T14:03:18.975Z,14.00
2018-03-21T14:05:47.307Z,13.00
2018-03-21T14:08:15.577Z,13.43
2018-03-21T14:10:43.897Z,12.97
2018-03-21T14:13:13.157Z,11.93
2018-03-21T14:15:42.890Z,14.90
2018-03-21T14:18:12.369Z,14.17
2018-03-21T14:20:45.938Z,13.27
2018-03-21T14:23:20.221Z,12.17
2018-03-21T14:25:49.540Z,15.00
2018-03-21T14:28:17.838Z,14.83
2018-03-21T14:31:04.884Z,16.63
2018-03-21T14:33:33.221Z,13.60
2018-03-21T14:36:06.719Z,13.53
2018-03-21T14:38:36.037Z,10.83
2018-03-21T14:41:04.343Z,12.83
2018-03-21T14:43:32.639Z,12.40
2018-03-21T14:46:00.952Z,12.93
2018-03-21T14:48:33.784Z,12.67
2018-03-21T14:51:02.086Z,10.80
2018-03-21T14:53:30.371Z,11.53
2018-03-21T14:55:58.647Z,12.07
2018-03-21T14:58:26.944Z,13.60
2018-03-21T15:00:57.256Z,13.47
2018-03-21T15:03:44.844Z,12.93
2018-03-21T15:06:13.057Z,13.77
2018-03-21T15:08:41.356Z,12.67
2018-03-21T15:11:09.641Z,15.37
2018-03-21T15:13:37.959Z,16.97
2018-03-21T15:16:06.250Z,17.97
2018-03-21T15:18:34.686Z,16.00
2018-03-21T15:21:02.968Z,15.60
2018-03-21T15:23:41.502Z,17.00
2018-03-21T15:26:09.793Z,19.80
2018-03-21T15:28:38.077Z,19.80
2018-03-21T15:31:06.375Z,18.30
2018-03-21T15:33:35.730Z,17.57
2018-03-21T15:36:04.017Z,21.50
2018-03-21T15:38:32.305Z,19.87
2018-03-21T15:41:00.619Z,18.33
2018-03-21T15:43:30.845Z,22.53
2018-03-21T15:45:59.143Z,24.60
2018-03-21T15:48:28.461Z,27.17
2018-03-21T15:50:56.769Z,21.97
2018-03-21T15:53:30.773Z,25.40
2018-03-21T15:56:12.766Z,21.87
2018-03-21T15:58:41.061Z,22.50
2018-03-21T16:01:10.439Z,21.40
2018-03-21T16:06:38.428Z,23.20
2018-03-21T16:09:06.725Z,20.60
2018-03-21T16:11:35.099Z,22.17
2018-03-21T16:14:03.385Z,21.93
2018-03-21T16:16:31.685Z,17.50
2018-03-21T16:18:59.974Z,20.73
2018-03-21T16:21:28.279Z,21.67
2018-03-21T16:23:56.566Z,18.97
2018-03-21T16:26:24.870Z,18.80
2018-03-21T16:28:53.161Z,17.50
2018-03-21T16:31:21.463Z,18.70
2018-03-21T16:33:49.773Z,19.00
2018-03-21T16:36:18.066Z,17.67
2018-03-21T16:38:46.367Z,18.67
2018-03-21T16:41:14.654Z,16.80
2018-03-21T16:43:42.947Z,18.40
2018-03-21T16:46:12.241Z,16.43
2018-03-21T16:48:40.545Z,17.63
2018-03-21T16:51:08.833Z,16.53
2018-03-21T16:53:37.119Z,16.00
2018-03-21T16:56:05.438Z,15.87
2018-03-21T16:58:33.727Z,15.10
2018-03-21T17:01:02.034Z,15.73
2018-03-21T17:03:30.317Z,16.30
2018-03-21T17:05:58.606Z,16.00
2018-03-21T17:08:26.895Z,14.40
2018-03-21T17:10:55.221Z,13.17
2018-03-21T17:13:23.515Z,12.20
2018-03-21T17:15:51.797Z,13.80
2018-03-21T17:18:20.113Z,13.23
2018-03-21T17:20:48.389Z,13.73
2018-03-21T17:23:16.676Z,14.23
2018-03-21T17:25:44.965Z,12.87
2018-03-21T17:28:13.265Z,11.53
2018-03-21T17:30:41.569Z,10.70
2018-03-21T17:33:09.847Z,11.30
2018-03-21T17:35:38.162Z,11.20
2018-03-21T17:38:06.442Z,13.40
2018-03-21T17:40:34.725Z,12.03
2018-03-21T17:43:03.025Z,11.47
2018-03-21T17:45:31.310Z,10.20
2018-03-21T17:47:59.633Z,11.23
2018-03-21T17:50:27.885Z,11.63
2018-03-21T17:52:56.191Z,10.43
2018-03-21T17:55:24.481Z,10.13
2018-03-21T17:57:52.785Z,11.57
2018-03-21T18:00:21.092Z,9.00
2018-03-21T18:02:49.409Z,10.23
2018-03-21T18:05:17.706Z,14.57
2018-03-21T18:07:46.094Z,14.63
2018-03-21T18:10:14.382Z,12.83
2018-03-21T18:12:42.661Z,10.53
2018-03-21T18:15:10.963Z,10.50
2018-03-21T18:17:39.255Z,10.57
2018-03-21T18:20:07.538Z,10.33
2018-03-21T18:22:42.948Z,8.57
2018-03-21T18:25:11.222Z,9.83
2018-03-21T18:27:39.509Z,8.87
2018-03-21T18:30:07.799Z,14.17
2018-03-21T18:32:36.118Z,8.60
2018-03-21T18:35:09.330Z,13.20
2018-03-21T18:37:37.638Z,9.37
2018-03-21T18:40:05.925Z,13.50
2018-03-21T18:42:34.208Z,13.47
2018-03-21T18:45:02.505Z,11.40
2018-03-21T18:47:30.792Z,13.40
2018-03-21T18:49:59.072Z,9.63
2018-03-21T18:52:27.363Z,10.23
2018-03-21T18:54:55.681Z,14.73
2018-03-21T18:57:23.965Z,14.43
2018-03-21T18:59:52.285Z,14.50
2018-03-21T19:02:20.554Z,14.03
2018-03-21T19:04:48.838Z,13.07
2018-03-21T19:07:17.133Z,16.63
2018-03-21T19:09:45.413Z,14.17
2018-03-21T19:12:13.708Z,15.60
2018-03-21T19:14:41.994Z,14.37
2018-03-21T19:17:10.306Z,15.67
2018-03-21T19:19:38.646Z,15.73
2018-03-21T19:22:06.931Z,15.63
2018-03-21T19:24:35.176Z,19.27
2018-03-21T19:27:03.473Z,16.10
2018-03-21T19:29:31.770Z,20.10
2018-03-21T19:32:00.058Z,20.03
2018-03-21T19:34:28.377Z,20.63
2018-03-21T19:36:56.656Z,21.10
2018-03-21T19:39:24.940Z,19.20
2018-03-21T19:41:53.233Z,17.60
2018-03-21T19:44:21.526Z,17.83
2018-03-21T19:46:49.822Z,18.07
2018-03-21T19:52:11.455Z,18.43
2018-03-21T19:54:39.803Z,16.13
2018-03-21T19:57:08.150Z,16.83
2018-03-21T19:59:36.429Z,15.70
2018-03-21T20:02:04.716Z,16.60
2018-03-21T20:04:33.023Z,17.43
2018-03-21T20:07:01.307Z,19.80
2018-03-21T20:09:29.600Z,19.23
2018-03-21T20:11:57.889Z,20.30
2018-03-21T20:14:26.188Z,20.07
2018-03-21T20:16:54.478Z,21.57
2018-03-21T20:19:22.766Z,19.87
2018-03-21T20:21:51.060Z,17.77
2018-03-21T20:24:19.348Z,18.67
2018-03-21T20:26:47.637Z,17.53
2018-03-21T20:29:15.913Z,18.37
2018-03-21T20:31:44.209Z,18.43
2018-03-21T20:34:12.498Z,20.47
2018-03-21T20:36:40.856Z,17.90
2018-03-21T20:39:09.071Z,22.93
2018-03-21T20:41:37.362Z,17.47
2018-03-21T20:44:05.656Z,18.47
2018-03-21T20:46:33.948Z,19.27
2018-03-21T20:49:02.241Z,17.10
2018-03-21T20:51:30.540Z,19.13
2018-03-21T20:53:58.834Z,18.90
2018-03-21T20:56:27.113Z,19.10
2018-03-21T20:58:55.401Z,17.23
2018-03-21T21:01:23.689Z,20.60
2018-03-21T21:03:51.977Z,17.63
2018-03-21T21:06:20.277Z,19.43
2018-03-21T21:08:48.590Z,17.00
2018-03-21T21:11:16.869Z,20.30
2018-03-21T21:13:45.159Z,19.23
2018-03-21T21:16:13.449Z,20.73
2018-03-21T21:18:41.756Z,19.13
2018-03-21T21:21:10.037Z,19.67
2018-03-21T21:23:38.334Z,19.40
2018-03-21T21:26:06.643Z,19.37
2018-03-21T21:28:35.913Z,22.90
2018-03-21T21:31:04.195Z,17.40
2018-03-21T21:33:36.397Z,19.10
2018-03-21T21:36:10.058Z,20.13
2018-03-21T21:38:39.300Z,22.57
2018-03-21T21:41:07.565Z,20.43
2018-03-21T21:43:35.851Z,24.67
2018-03-21T21:49:03.944Z,20.30
2018-03-21T21:51:32.245Z,19.90
2018-03-21T21:54:02.494Z,19.90
2018-03-21T21:56:30.789Z,21.57
2018-03-21T21:58:59.066Z,18.37
2018-03-21T22:01:27.348Z,21.37
2018-03-21T22:04:04.120Z,21.10
2018-03-21T22:06:32.411Z,22.40
2018-03-21T22:09:01.767Z,20.07
2018-03-21T22:11:30.041Z,22.57
2018-03-21T22:13:58.345Z,19.33
2018-03-21T22:16:26.628Z,21.37
2018-03-21T22:19:05.325Z,23.23
2018-03-21T22:21:33.629Z,22.80
2018-03-21T22:24:01.913Z,20.73
2018-03-21T22:26:30.213Z,19.47
2018-03-21T22:28:58.500Z,19.87
2018-03-21T22:31:26.796Z,21.37
2018-03-21T22:33:55.083Z,23.27
2018-03-21T22:36:23.380Z,23.73
2018-03-21T22:38:51.660Z,21.70
2018-03-21T22:41:19.957Z,22.40
2018-03-21T22:43:48.247Z,19.77
2018-03-21T22:46:34.347Z,23.83
2018-03-21T22:49:02.645Z,20.47
2018-03-21T22:51:30.924Z,21.83
2018-03-21T22:53:59.209Z,21.30
2018-03-21T22:56:27.485Z,21.37
2018-03-21T22:58:55.797Z,21.20
2018-03-21T23:01:24.086Z,20.27
2018-03-21T23:03:52.401Z,19.40
2018-03-21T23:06:20.691Z,21.90
2018-03-21T23:08:48.977Z,16.10
2018-03-21T23:11:17.290Z,21.50
2018-03-21T23:13:45.565Z,21.53
2018-03-21T23:16:13.868Z,20.13
2018-03-21T23:18:42.150Z,21.63
2018-03-21T23:21:10.439Z,19.70
2018-03-21T23:23:38.721Z,22.90
2018-03-21T23:26:07.010Z,18.97
2018-03-21T23:28:35.293Z,19.90
2018-03-21T23:31:03.577Z,20.53
2018-03-21T23:33:31.873Z,19.33
2018-03-21T23:36:00.160Z,22.47
2018-03-21T23:38:28.451Z,21.30
2018-03-21T23:40:56.750Z,21.00
2018-03-21T23:43:25.046Z,22.27
2018-03-21T23:45:53.342Z,22.03
2018-03-21T23:48:21.637Z,21.90
2018-03-21T23:50:49.926Z,21.90
2018-03-21T23:53:18.222Z,21.63
2018-03-21T23:55:46.530Z,23.37
2018-03-21T23:58:14.810Z,23.07
